Time;durP1;ratioP1;P1;durP2;ratioP2;P2;SDS_P1;SDS_P2;PMS_P1;PMS_P2;Temp;Humidity;BMP_temperature;BMP_pressure;BME280_temperature;BME280_humidity;BME280_pressure;Samples;Min_cycle;Max_cycle;Signal;HPM_P1;HPM_P2
2023/06/29 00:01:55;;;;;;;14.68;8.50;;;;;;;31.50;38.82;101673.84;5075754;28;20649;-72
2023/06/29 00:04:25;;;;;;;19.73;9.23;;;;;;;31.35;39.01;101681.44;5075816;28;20034;-71
2023/06/29 00:06:52;;;;;;;18.35;8.25;;;;;;;31.84;38.09;101677.22;5075408;28;20063;-73
2023/06/29 00:09:19;;;;;;;14.90;8.00;;;;;;;30.45;40.64;101675.34;5076257;28;20121;-74
2023/06/29 00:11:44;;;;;;;20.98;9.20;;;;;;;31.00;39.91;101679.84;5075671;28;20032;-73
2023/06/29 00:14:10;;;;;;;17.70;8.52;;;;;;;30.76;40.06;101680.91;5075879;28;20449;-73
2023/06/29 00:16:35;;;;;;;18.13;8.80;;;;;;;30.43;40.68;101679.97;5075691;28;20028;-75
2023/06/29 00:19:01;;;;;;;19.08;8.60;;;;;;;30.45;40.82;101678.03;5075835;28;20020;-71
2023/06/29 00:21:31;;;;;;;18.13;8.73;;;;;;;31.61;38.34;101681.91;5075228;28;20035;-73
2023/06/29 00:23:56;;;;;;;15.70;8.65;;;;;;;31.73;38.44;101677.31;5076121;28;20038;-71
2023/06/29 00:26:22;;;;;;;18.10;8.57;;;;;;;32.11;37.10;101683.88;5075811;28;20024;-74
2023/06/29 00:28:47;;;;;;;15.88;8.20;;;;;;;32.16;37.39;101684.34;5092943;28;20019;-73
2023/06/29 00:31:13;;;;;;;18.50;9.20;;;;;;;30.82;39.77;101675.00;5075819;28;20388;-73
2023/06/29 00:33:38;;;;;;;17.40;8.27;;;;;;;31.95;37.63;101674.41;5093529;28;20035;-74
2023/06/29 00:36:04;;;;;;;18.27;9.90;;;;;;;31.34;38.71;101674.31;5075018;28;20032;-73
2023/06/29 00:38:29;;;;;;;16.77;8.48;;;;;;;30.82;39.62;101674.13;5075198;28;20028;-71
2023/06/29 00:40:54;;;;;;;18.50;8.55;;;;;;;30.90;39.76;101661.72;5074825;28;20332;-72
2023/06/29 00:43:20;;;;;;;22.20;9.00;;;;;;;31.65;38.43;101660.91;5074337;28;20027;-72
2023/06/29 00:45:46;;;;;;;15.38;8.43;;;;;;;30.77;39.85;101661.03;5093602;28;20373;-73
2023/06/29 00:48:12;;;;;;;19.30;9.18;;;;;;;32.23;37.48;101654.91;5074875;28;20443;-74
2023/06/29 00:50:39;;;;;;;18.55;8.60;;;;;;;31.96;37.35;101654.50;5075034;28;20077;-75
2023/06/29 00:53:05;;;;;;;19.65;9.50;;;;;;;32.20;37.32;101656.03;5075476;28;20024;-74
2023/06/29 00:55:30;;;;;;;16.02;8.73;;;;;;;32.10;37.42;101658.69;5074530;28;20502;-72
2023/06/29 00:57:55;;;;;;;16.17;8.40;;;;;;;32.28;36.91;101648.09;5093168;28;20031;-74
2023/06/29 01:00:21;;;;;;;17.70;8.25;;;;;;;31.22;39.11;101644.69;5075422;28;20016;-73
2023/06/29 01:02:48;;;;;;;16.15;8.15;;;;;;;32.11;37.50;101646.03;5074455;28;20032;-73
2023/06/29 01:05:15;;;;;;;17.10;8.18;;;;;;;31.76;38.08;101644.59;5093414;28;20052;-73
2023/06/29 01:07:53;;;;;;;16.15;8.52;;;;;;;32.46;36.97;101640.16;5093063;28;20032;-73
2023/06/29 01:10:24;;;;;;;14.73;8.25;;;;;;;32.51;36.85;101642.47;5074597;28;20027;-74
2023/06/29 01:12:51;;;;;;;18.02;8.90;;;;;;;32.39;36.70;101638.16;5093039;28;20052;-73
2023/06/29 01:15:18;;;;;;;17.00;8.80;;;;;;;32.22;37.06;101632.44;5092993;28;20028;-71
2023/06/29 01:17:47;;;;;;;19.25;8.18;;;;;;;31.94;37.26;101640.28;5074301;28;20030;-72
2023/06/29 01:20:14;;;;;;;17.25;9.27;;;;;;;32.50;36.87;101634.47;5074530;28;20023;-72
2023/06/29 01:22:53;;;;;;;16.42;8.73;;;;;;;32.34;37.44;101640.41;5074466;28;20464;-71
2023/06/29 01:25:19;;;;;;;17.85;8.57;;;;;;;32.02;38.10;101636.03;5074409;28;20028;-73
2023/06/29 01:27:46;;;;;;;15.50;8.13;;;;;;;31.61;38.60;101641.38;5074476;28;20055;-73
2023/06/29 01:30:13;;;;;;;16.92;8.40;;;;;;;31.59;38.81;101635.28;5092649;28;20016;-73
2023/06/29 01:32:39;;;;;;;17.95;9.30;;;;;;;29.63;42.82;101638.66;5092525;28;20491;-73
2023/06/29 01:35:07;;;;;;;15.05;8.65;;;;;;;31.41;39.15;101629.59;5092742;28;20034;-73
2023/06/29 01:37:45;;;;;;;18.52;8.52;;;;;;;31.82;38.40;101630.56;5073953;28;20597;-73
2023/06/29 01:40:17;;;;;;;19.27;9.50;;;;;;;31.42;39.09;101624.06;5092860;28;20036;-73
2023/06/29 01:42:43;;;;;;;18.48;8.85;;;;;;;32.18;37.91;101620.19;5074055;28;20162;-73
2023/06/29 01:45:10;;;;;;;17.17;9.40;;;;;;;31.11;39.64;101617.75;5091560;28;20032;-71
2023/06/29 01:47:36;;;;;;;16.88;8.82;;;;;;;32.10;37.90;101610.00;5092380;28;20405;-74
2023/06/29 01:50:02;;;;;;;18.48;8.90;;;;;;;32.08;38.04;101603.03;5074587;28;20365;-71
2023/06/29 01:52:28;;;;;;;19.73;9.40;;;;;;;31.50;38.59;101611.72;5072969;28;20027;-72
2023/06/29 01:54:53;;;;;;;26.05;9.43;;;;;;;31.01;40.00;101616.78;5073634;28;20023;-71
2023/06/29 01:57:19;;;;;;;16.85;8.93;;;;;;;31.54;39.03;101616.72;5091942;28;20147;-71
2023/06/29 01:59:46;;;;;;;17.83;8.73;;;;;;;31.27;39.51;101614.56;5072991;28;20046;-72
2023/06/29 02:02:12;;;;;;;17.50;8.88;;;;;;;31.44;39.23;101610.44;5074074;28;20024;-72
2023/06/29 02:04:38;;;;;;;17.65;8.38;;;;;;;31.51;38.53;101606.19;5091376;28;20028;-72
2023/06/29 02:07:03;;;;;;;17.80;9.45;;;;;;;31.00;40.13;101602.44;5073061;28;20423;-71
2023/06/29 02:09:29;;;;;;;17.92;9.90;;;;;;;31.90;38.37;101603.72;5073868;28;20073;-72
2023/06/29 02:11:54;;;;;;;17.40;9.85;;;;;;;31.13;39.67;101602.25;5073257;28;20210;-73
2023/06/29 02:14:20;;;;;;;24.17;10.15;;;;;;;30.36;41.14;101601.41;5091303;28;20027;-72
2023/06/29 02:16:51;;;;;;;20.67;10.10;;;;;;;31.04;40.16;101589.56;5091325;28;20042;-72
2023/06/29 02:19:16;;;;;;;16.15;9.05;;;;;;;31.68;38.92;101595.78;5073492;28;20036;-72
2023/06/29 02:21:42;;;;;;;23.67;9.73;;;;;;;31.19;39.26;101596.34;5072619;28;20024;-72
2023/06/29 02:24:07;;;;;;;21.17;10.32;;;;;;;30.17;41.93;101594.00;5073175;28;20114;-74
2023/06/29 02:26:33;;;;;;;19.73;10.00;;;;;;;30.44;41.44;101579.25;5072997;28;20494;-71
2023/06/29 02:28:58;;;;;;;17.17;9.52;;;;;;;31.13;39.78;101586.06;5091121;28;20020;-71
2023/06/29 02:31:23;;;;;;;25.42;10.70;;;;;;;30.98;40.24;101581.97;5073586;28;20024;-73
2023/06/29 02:33:49;;;;;;;21.17;10.32;;;;;;;29.47;43.45;101579.78;5072350;28;20090;-72
2023/06/29 02:36:15;;;;;;;23.92;10.77;;;;;;;30.20;41.51;101582.97;5091343;28;20024;-71
2023/06/29 02:38:41;;;;;;;18.88;10.63;;;;;;;30.98;40.26;101576.56;5072997;28;20130;-71
2023/06/29 02:41:06;;;;;;;22.40;10.88;;;;;;;30.43;41.81;101575.66;5072678;28;20398;-71
2023/06/29 02:43:33;;;;;;;22.42;10.25;;;;;;;29.82;42.28;101577.97;5091335;28;20024;-71
2023/06/29 02:45:59;;;;;;;22.05;10.80;;;;;;;29.43;43.09;101573.78;5072853;28;20031;-72
2023/06/29 02:48:25;;;;;;;23.23;10.73;;;;;;;29.80;42.87;101561.91;5090361;28;20030;-73
2023/06/29 02:50:50;;;;;;;28.05;11.90;;;;;;;29.97;41.80;101570.50;5072920;28;20031;-72
2023/06/29 02:53:16;;;;;;;24.23;11.80;;;;;;;29.29;43.60;101582.06;5091118;28;20062;-73
2023/06/29 02:55:41;;;;;;;25.92;11.48;;;;;;;29.86;42.78;101572.22;5090197;28;20051;-72
2023/06/29 02:58:07;;;;;;;27.52;12.52;;;;;;;30.33;42.13;101572.00;5073112;28;20521;-72
2023/06/29 03:00:32;;;;;;;20.88;10.70;;;;;;;29.95;42.65;101563.41;5073115;28;20020;-72
2023/06/29 03:02:57;;;;;;;25.52;11.55;;;;;;;28.63;45.33;101573.59;5071719;28;20077;-72
2023/06/29 03:05:23;;;;;;;24.80;11.40;;;;;;;29.44;44.31;101564.72;5090441;28;20051;-72
2023/06/29 03:07:48;;;;;;;27.75;13.43;;;;;;;29.66;43.45;101560.31;5072512;28;20024;-73
2023/06/29 03:10:14;;;;;;;21.75;11.40;;;;;;;30.13;42.48;101560.19;5072758;28;20063;-72
2023/06/29 03:12:41;;;;;;;27.38;11.70;;;;;;;29.81;43.25;101550.13;5090611;28;20365;-72
2023/06/29 03:15:07;;;;;;;26.55;12.38;;;;;;;28.92;44.79;101553.47;5073157;28;20039;-73
2023/06/29 03:17:32;;;;;;;27.30;12.57;;;;;;;29.57;43.52;101548.44;5072115;28;20020;-73
2023/06/29 03:19:58;;;;;;;25.70;12.50;;;;;;;30.15;42.16;101547.44;5072316;28;20080;-72
2023/06/29 03:22:25;;;;;;;23.00;11.95;;;;;;;29.29;43.92;101549.75;5072526;28;20115;-72
2023/06/29 03:24:50;;;;;;;24.10;12.38;;;;;;;30.88;40.22;101544.97;5071470;28;20556;-72
2023/06/29 03:27:16;;;;;;;26.00;11.65;;;;;;;31.19;39.95;101542.34;5073053;28;20031;-72
2023/06/29 03:29:41;;;;;;;26.35;11.90;;;;;;;29.29;43.57;101539.00;5072020;28;20046;-73
2023/06/29 03:32:07;;;;;;;27.05;12.55;;;;;;;30.09;41.88;101537.16;5072280;28;20073;-73
2023/06/29 03:34:32;;;;;;;24.13;11.93;;;;;;;29.89;43.11;101536.94;5072527;28;20376;-73
2023/06/29 03:36:57;;;;;;;24.67;11.68;;;;;;;29.27;43.43;101539.13;5089831;28;20048;-73
2023/06/29 03:39:23;;;;;;;24.75;13.13;;;;;;;28.58;45.67;101544.41;5072540;28;20028;-72
2023/06/29 03:41:48;;;;;;;29.17;12.35;;;;;;;29.56;43.56;101535.94;5072010;28;20028;-72
2023/06/29 03:44:14;;;;;;;26.13;12.30;;;;;;;28.63;45.41;101535.97;5071952;28;20028;-72
2023/06/29 03:46:40;;;;;;;24.52;12.45;;;;;;;29.82;43.13;101527.63;5090254;28;20024;-72
2023/06/29 03:49:05;;;;;;;23.08;11.27;;;;;;;29.93;42.39;101533.00;5072502;28;20028;-72
2023/06/29 03:51:31;;;;;;;28.40;12.32;;;;;;;29.32;44.17;101537.91;5072263;28;20123;-72
2023/06/29 03:53:56;;;;;;;20.88;11.93;;;;;;;28.75;45.20;101532.38;5072252;28;20035;-73
2023/06/29 03:56:21;;;;;;;24.23;12.43;;;;;;;29.84;42.58;101528.38;5090346;28;20052;-73
2023/06/29 03:58:47;;;;;;;22.35;11.23;;;;;;;29.57;43.50;101534.97;5071610;28;20024;-72
2023/06/29 04:01:12;;;;;;;24.02;11.30;;;;;;;30.75;40.91;101533.53;5072346;28;20024;-72
2023/06/29 04:03:37;;;;;;;21.85;11.10;;;;;;;31.03;40.23;101525.78;5072028;28;20388;-73
2023/06/29 04:06:03;;;;;;;23.92;11.65;;;;;;;29.01;44.22;101532.22;5089911;28;20034;-73
2023/06/29 04:08:28;;;;;;;22.90;11.60;;;;;;;30.11;41.38;101524.41;5090391;28;20411;-72
2023/06/29 04:10:54;;;;;;;27.05;11.90;;;;;;;30.31;41.72;101516.50;5072054;28;20079;-72
2023/06/29 04:13:19;;;;;;;24.42;11.80;;;;;;;30.74;40.34;101526.41;5072043;28;20024;-73
2023/06/29 04:15:45;;;;;;;24.90;10.80;;;;;;;29.46;43.00;101526.91;5072692;28;20038;-72
2023/06/29 04:18:10;;;;;;;21.50;10.93;;;;;;;29.16;42.31;101536.38;5075960;28;20036;-72
2023/06/29 04:20:36;;;;;;;20.75;10.90;;;;;;;29.42;42.38;101522.75;5074959;28;20062;-72
2023/06/29 04:23:02;;;;;;;20.45;10.45;;;;;;;28.45;44.28;101522.94;5075824;28;20031;-72
2023/06/29 04:25:27;;;;;;;21.45;10.63;;;;;;;29.45;42.50;101523.34;5076313;28;20118;-73
2023/06/29 04:27:53;;;;;;;19.25;10.23;;;;;;;28.04;44.18;101518.81;5075509;28;20028;-72
2023/06/29 04:30:18;;;;;;;20.65;10.40;;;;;;;29.32;42.76;101516.38;5093957;28;20042;-73
2023/06/29 04:32:44;;;;;;;18.70;9.95;;;;;;;28.57;43.70;101516.63;5075245;28;20024;-73
2023/06/29 04:35:10;;;;;;;21.17;10.15;;;;;;;29.14;42.64;101524.91;5074876;28;20049;-72
2023/06/29 04:37:44;;;;;;;18.00;9.60;;;;;;;29.10;42.92;101528.81;5075179;28;20019;-73
2023/06/29 04:40:14;;;;;;;19.50;9.60;;;;;;;29.82;41.72;101530.31;5074609;28;20399;-73
2023/06/29 04:42:47;;;;;;;21.52;10.25;;;;;;;27.89;45.47;101512.69;5075363;28;20024;-73
2023/06/29 04:45:17;;;;;;;20.42;9.88;;;;;;;27.93;45.64;101515.06;5075801;28;20016;-72
2023/06/29 04:47:44;;;;;;;19.45;10.10;;;;;;;28.22;44.73;101517.47;5092335;28;20101;-73
2023/06/29 04:50:10;;;;;;;22.40;10.73;;;;;;;29.19;42.49;101511.91;5093713;28;20043;-72
2023/06/29 04:52:37;;;;;;;21.80;10.05;;;;;;;28.35;44.93;101521.91;5075096;28;20346;-72
2023/06/29 04:55:06;;;;;;;20.90;11.38;;;;;;;27.47;46.84;101510.31;5092627;28;20052;-72
2023/06/29 04:57:32;;;;;;;20.98;10.23;;;;;;;29.28;43.38;101505.84;5075019;28;20101;-72
2023/06/29 04:59:57;;;;;;;20.83;11.52;;;;;;;29.97;41.56;101505.84;5074600;28;20418;-72
2023/06/29 05:02:23;;;;;;;21.20;10.88;;;;;;;29.84;41.51;101503.25;5074595;28;20433;-72
2023/06/29 05:04:49;;;;;;;22.50;10.98;;;;;;;29.26;42.72;101502.44;5074737;28;20086;-72
2023/06/29 05:07:15;;;;;;;20.52;9.98;;;;;;;27.81;45.36;101517.75;5075197;28;20016;-72
2023/06/29 05:09:40;;;;;;;23.42;10.07;;;;;;;28.33;45.36;101513.97;5092407;28;20508;-72
2023/06/29 05:12:08;;;;;;;19.20;10.05;;;;;;;28.50;43.87;101515.38;5075311;28;20035;-72
2023/06/29 05:14:34;;;;;;;23.08;11.13;;;;;;;28.60;43.91;101516.41;5075360;28;20066;-72
2023/06/29 05:17:00;;;;;;;21.48;10.50;;;;;;;29.00;42.81;101512.50;5074098;28;20119;-71
2023/06/29 05:19:25;;;;;;;25.05;11.45;;;;;;;29.19;42.79;101511.06;5074923;28;20114;-72
2023/06/29 05:21:51;;;;;;;22.20;11.63;;;;;;;29.13;42.75;101506.16;5074608;28;20035;-73
2023/06/29 05:24:16;;;;;;;21.08;11.57;;;;;;;28.17;44.46;101508.03;5092111;28;20028;-72
2023/06/29 05:26:42;;;;;;;23.00;11.63;;;;;;;27.48;45.92;101506.66;5074441;28;20048;-73
2023/06/29 05:29:07;;;;;;;22.38;11.35;;;;;;;29.38;42.05;101491.66;5091833;28;20134;-71
2023/06/29 05:31:32;;;;;;;24.23;11.07;;;;;;;29.58;41.73;101503.50;5074419;28;20115;-72
2023/06/29 05:33:58;;;;;;;22.10;10.88;;;;;;;30.25;40.13;101504.41;5092494;28;20248;-73
2023/06/29 05:36:23;;;;;;;26.08;11.40;;;;;;;29.96;40.91;101499.56;5074311;28;20095;-72
2023/06/29 05:38:49;;;;;;;22.98;11.00;;;;;;;29.35;41.97;101500.00;5073967;28;20027;-72
2023/06/29 05:41:14;;;;;;;26.77;10.95;;;;;;;28.23;44.74;101499.50;5092215;28;20471;-73
2023/06/29 05:43:39;;;;;;;22.80;11.65;;;;;;;28.36;44.59;101491.38;5073226;28;20160;-74
2023/06/29 05:46:05;;;;;;;27.77;12.77;;;;;;;28.63;44.31;101501.00;5074643;28;20108;-73
2023/06/29 05:48:30;;;;;;;24.48;10.88;;;;;;;29.70;41.56;101499.81;5074401;28;20024;-72
2023/06/29 05:50:56;;;;;;;23.83;11.75;;;;;;;29.49;42.80;101502.44;5073077;28;20221;-72
2023/06/29 05:53:21;;;;;;;22.70;11.70;;;;;;;30.12;41.01;101499.19;5074260;28;20472;-72
2023/06/29 05:55:47;;;;;;;25.40;11.63;;;;;;;30.18;40.63;101498.66;5073688;28;20059;-72
2023/06/29 05:58:12;;;;;;;25.98;11.63;;;;;;;29.57;42.10;101505.34;5091566;28;20032;-72
2023/06/29 06:00:37;;;;;;;28.02;13.30;;;;;;;29.78;41.37;101507.28;5073337;28;20024;-72
2023/06/29 06:03:03;;;;;;;24.85;12.32;;;;;;;29.87;41.10;101503.03;5092169;28;20084;-73
2023/06/29 06:05:29;;;;;;;28.65;12.43;;;;;;;30.84;39.59;101504.88;5091470;28;20392;-72
2023/06/29 06:07:55;;;;;;;30.05;13.90;;;;;;;28.81;43.32;101512.22;5091785;28;20284;-73
2023/06/29 06:10:20;;;;;;;29.63;14.15;;;;;;;29.24;42.54;101508.88;5073725;28;20027;-71
2023/06/29 06:12:45;;;;;;;29.15;12.68;;;;;;;29.60;41.93;101510.50;5072975;28;20460;-71
2023/06/29 06:15:13;;;;;;;26.02;12.95;;;;;;;29.83;41.52;101507.78;5073226;28;20047;-73
2023/06/29 06:17:39;;;;;;;30.02;14.68;;;;;;;28.90;43.81;101511.50;5073060;28;20020;-72
2023/06/29 06:20:05;;;;;;;32.58;14.40;;;;;;;29.56;41.87;101508.19;5091202;28;20540;-73
2023/06/29 06:22:30;;;;;;;31.63;13.85;;;;;;;30.38;40.58;101499.69;5073692;28;20602;-72
2023/06/29 06:24:56;;;;;;;31.65;14.38;;;;;;;28.43;44.86;101508.75;5091219;28;20487;-72
2023/06/29 06:27:21;;;;;;;29.83;14.55;;;;;;;29.42;43.25;101503.91;5072891;28;20031;-72
2023/06/29 06:29:47;;;;;;;33.65;15.05;;;;;;;27.13;46.93;101511.81;5073216;28;20047;-73
2023/06/29 06:32:12;;;;;;;33.10;14.40;;;;;;;28.87;44.41;101501.84;5091537;28;20032;-73
2023/06/29 06:34:38;;;;;;;35.60;15.60;;;;;;;29.81;41.95;101498.97;5072061;28;20032;-72
2023/06/29 06:37:05;;;;;;;35.25;15.85;;;;;;;30.15;41.98;101504.31;5073204;28;20024;-72
2023/06/29 06:39:32;;;;;;;35.25;15.88;;;;;;;30.74;40.45;101499.44;5072115;28;20438;-72
2023/06/29 06:41:59;;;;;;;32.28;15.20;;;;;;;30.89;40.02;101502.66;5090597;28;20024;-73
2023/06/29 06:44:25;;;;;;;29.80;14.73;;;;;;;30.58;40.29;101500.75;5073192;28;20119;-72
2023/06/29 06:46:50;;;;;;;32.20;15.38;;;;;;;30.78;40.14;101500.88;5071962;28;20118;-72
2023/06/29 06:49:16;;;;;;;29.98;14.45;;;;;;;31.20;39.35;101506.28;5073337;28;20115;-73
2023/06/29 06:51:41;;;;;;;33.67;15.98;;;;;;;30.44;41.03;101509.97;5072677;28;20479;-73
2023/06/29 06:54:07;;;;;;;31.48;14.80;;;;;;;31.11;40.02;101501.69;5072579;28;20039;-73
2023/06/29 06:56:32;;;;;;;35.55;15.57;;;;;;;29.32;43.16;101505.59;5090923;28;20048;-72
2023/06/29 06:58:58;;;;;;;32.17;16.17;;;;;;;30.11;41.66;101498.31;5072929;28;20505;-73
2023/06/29 07:01:24;;;;;;;29.95;15.27;;;;;;;30.77;40.08;101504.56;5090274;28;20028;-73
2023/06/29 07:03:51;;;;;;;30.38;15.43;;;;;;;30.25;41.50;101499.88;5072939;28;20016;-73
2023/06/29 07:06:17;;;;;;;34.08;16.27;;;;;;;30.53;41.08;101502.97;5073076;28;20237;-73
2023/06/29 07:08:43;;;;;;;31.88;16.20;;;;;;;30.02;41.17;101499.09;5071861;28;20024;-72
2023/06/29 07:11:08;;;;;;;31.52;14.68;;;;;;;30.41;41.51;101503.97;5072996;28;20030;-72
2023/06/29 07:13:37;;;;;;;33.72;14.98;;;;;;;31.24;39.31;101502.31;5073122;28;20059;-73
2023/06/29 07:16:03;;;;;;;29.05;15.00;;;;;;;30.60;41.09;101504.16;5072496;28;20557;-73
2023/06/29 07:18:29;;;;;;;27.80;14.68;;;;;;;30.26;41.26;101512.34;5072794;28;20566;-72
2023/06/29 07:20:55;;;;;;;29.70;14.80;;;;;;;29.75;43.02;101507.56;5090710;28;20295;-73
2023/06/29 07:23:20;;;;;;;28.27;14.50;;;;;;;30.29;41.72;101506.72;5071930;28;20023;-72
2023/06/29 07:25:46;;;;;;;26.60;13.85;;;;;;;29.28;42.90;101511.22;5072603;28;20031;-72
2023/06/29 07:28:11;;;;;;;28.15;14.00;;;;;;;30.54;41.24;101506.50;5072935;28;20027;-73
2023/06/29 07:30:37;;;;;;;26.02;14.38;;;;;;;29.78;42.88;101512.69;5071812;28;20046;-72
2023/06/29 07:33:02;;;;;;;28.52;15.15;;;;;;;29.91;41.85;101501.78;5072591;28;20028;-72
2023/06/29 07:35:27;;;;;;;26.52;14.07;;;;;;;30.14;42.21;101502.59;5072788;28;20458;-73
2023/06/29 07:37:53;;;;;;;29.83;15.07;;;;;;;30.17;42.05;101499.66;5089222;28;20035;-72
2023/06/29 07:40:19;;;;;;;29.10;14.50;;;;;;;28.82;44.85;101503.19;5072620;28;20046;-73
2023/06/29 07:42:45;;;;;;;30.55;15.27;;;;;;;29.89;42.88;101493.84;5072367;28;20091;-72
2023/06/29 07:45:12;;;;;;;29.02;14.68;;;;;;;30.26;41.94;101496.16;5090252;28;20020;-72
2023/06/29 07:47:37;;;;;;;29.73;15.00;;;;;;;29.90;43.17;101489.31;5072236;28;20053;-72
2023/06/29 07:50:03;;;;;;;30.25;15.68;;;;;;;30.31;41.55;101497.63;5072116;28;20012;-73
2023/06/29 07:52:30;;;;;;;27.10;14.75;;;;;;;29.88;42.98;101489.44;5093954;28;20024;-73
2023/06/29 07:54:56;;;;;;;26.10;14.27;;;;;;;30.23;42.30;101496.44;5093980;28;20035;-72
2023/06/29 07:57:21;;;;;;;29.58;14.35;;;;;;;30.04;42.37;101491.72;5093958;28;20047;-72
2023/06/29 07:59:47;;;;;;;26.77;13.60;;;;;;;30.78;41.40;101492.78;5075735;28;20502;-72
2023/06/29 08:02:12;;;;;;;27.60;14.43;;;;;;;31.52;40.17;101483.66;5076469;28;20021;-72
2023/06/29 08:04:38;;;;;;;30.77;15.25;;;;;;;30.83;41.15;101486.97;5075456;28;20016;-73
2023/06/29 08:07:04;;;;;;;27.70;14.15;;;;;;;30.88;40.59;101490.16;5076293;28;20031;-72
2023/06/29 08:09:29;;;;;;;25.05;14.55;;;;;;;31.78;39.27;101488.63;5075995;28;20067;-73
2023/06/29 08:11:54;;;;;;;25.42;13.85;;;;;;;31.08;40.86;101480.34;5075433;28;20213;-73
2023/06/29 08:14:20;;;;;;;25.00;12.70;;;;;;;29.98;42.63;101485.97;5076241;28;20027;-72
2023/06/29 08:16:45;;;;;;;24.60;13.60;;;;;;;30.39;42.00;101490.63;5075805;28;20476;-72
2023/06/29 08:19:10;;;;;;;26.10;14.35;;;;;;;30.05;41.71;101476.41;5075299;28;20039;-73
2023/06/29 08:21:36;;;;;;;25.92;12.98;;;;;;;32.32;38.37;101480.16;5075581;28;20039;-72
2023/06/29 08:24:01;;;;;;;27.48;13.55;;;;;;;33.51;36.48;101472.50;5093967;28;20365;-72
2023/06/29 08:26:27;;;;;;;28.02;13.98;;;;;;;32.43;38.51;101482.72;5075347;28;20130;-73
2023/06/29 08:28:52;;;;;;;22.40;13.35;;;;;;;32.06;39.09;101486.09;5075338;28;20024;-73
2023/06/29 08:31:19;;;;;;;25.80;13.93;;;;;;;30.14;41.99;101481.03;5075883;28;20053;-72
2023/06/29 08:33:45;;;;;;;21.98;12.43;;;;;;;31.26;39.84;101484.13;5074606;28;20024;-72
2023/06/29 08:36:11;;;;;;;25.60;12.73;;;;;;;32.60;37.70;101479.28;5075648;28;20067;-73
2023/06/29 08:38:36;;;;;;;24.17;13.18;;;;;;;32.82;37.70;101471.84;5075291;28;20082;-73
2023/06/29 08:41:04;;;;;;;20.95;12.48;;;;;;;32.43;38.17;101469.19;5074956;28;20030;-72
2023/06/29 08:43:30;;;;;;;25.17;13.30;;;;;;;29.84;42.82;101461.00;5075777;28;20020;-72
2023/06/29 08:45:55;;;;;;;23.13;12.30;;;;;;;31.60;39.86;101464.09;5075041;28;20035;-72
2023/06/29 08:48:22;;;;;;;22.40;12.63;;;;;;;30.53;41.54;101469.72;5075071;28;20058;-73
2023/06/29 08:50:54;;;;;;;24.85;13.75;;;;;;;31.28;40.37;101471.38;5092772;28;20042;-74
2023/06/29 08:53:20;;;;;;;24.40;12.77;;;;;;;30.58;41.85;101467.50;5092751;28;20024;-72
2023/06/29 08:55:47;;;;;;;24.23;13.10;;;;;;;30.41;43.05;101471.63;5074862;28;20056;-73
2023/06/29 08:58:12;;;;;;;24.77;13.13;;;;;;;31.45;40.55;101471.72;5093250;28;20020;-72
2023/06/29 09:00:40;;;;;;;25.83;12.85;;;;;;;32.56;38.17;101477.88;5074331;28;20051;-72
2023/06/29 09:03:06;;;;;;;26.23;13.85;;;;;;;31.78;39.44;101467.84;5073774;28;20037;-72
2023/06/29 09:05:32;;;;;;;25.80;13.75;;;;;;;29.34;43.50;101482.13;5074919;28;20020;-72
2023/06/29 09:07:58;;;;;;;26.42;13.35;;;;;;;30.89;41.32;101481.91;5092078;28;20028;-74
2023/06/29 09:10:23;;;;;;;30.48;13.35;;;;;;;30.58;42.22;101473.78;5075034;28;20073;-73
2023/06/29 09:12:52;;;;;;;29.63;14.75;;;;;;;32.47;38.64;101478.72;5092769;28;20024;-73
2023/06/29 09:15:18;;;;;;;24.05;12.82;;;;;;;31.75;39.16;101480.75;5073991;28;20015;-73
2023/06/29 09:17:47;;;;;;;26.20;14.35;;;;;;;31.97;38.75;101475.13;5092920;28;20436;-72
2023/06/29 09:20:15;;;;;;;28.25;13.93;;;;;;;32.28;38.34;101483.13;5092760;28;20099;-73
2023/06/29 09:22:42;;;;;;;24.67;13.75;;;;;;;31.94;38.82;101477.25;5092098;28;20032;-72
2023/06/29 09:25:13;;;;;;;27.55;13.73;;;;;;;31.71;39.10;101484.72;5074706;28;20082;-72
2023/06/29 09:27:38;;;;;;;27.35;12.90;;;;;;;32.71;37.23;101485.56;5074261;28;20483;-74
2023/06/29 09:30:05;;;;;;;28.80;13.10;;;;;;;32.05;38.19;101485.22;5092171;28;20027;-73
2023/06/29 09:32:31;;;;;;;24.92;12.55;;;;;;;31.50;39.71;101477.53;5092749;28;20059;-73
2023/06/29 09:35:08;;;;;;;24.25;13.43;;;;;;;31.66;39.80;101479.75;5092455;28;20563;-73
2023/06/29 09:37:36;;;;;;;25.27;12.80;;;;;;;33.07;36.51;101477.63;5072540;28;20049;-72
2023/06/29 09:40:12;;;;;;;23.20;11.63;;;;;;;32.12;37.45;101475.56;5074008;28;20024;-73
2023/06/29 09:42:38;;;;;;;23.38;11.68;;;;;;;32.84;36.81;101479.81;5083451;28;20040;-73
2023/06/29 09:45:14;;;;;;;21.05;11.18;;;;;;;36.89;31.10;101477.06;5069600;28;20024;-73
2023/06/29 09:47:41;;;;;;;19.75;11.10;;;;;;;35.45;32.58;101473.63;5055950;28;20107;-73
2023/06/29 09:50:17;;;;;;;21.85;11.30;;;;;;;33.09;35.81;101472.94;5053587;28;20066;-73
2023/06/29 09:52:45;;;;;;;19.58;10.85;;;;;;;34.44;34.68;101468.72;5053677;28;20028;-72
2023/06/29 09:55:10;;;;;;;20.85;10.75;;;;;;;34.55;34.10;101463.03;5054507;28;20024;-73
2023/06/29 09:57:39;;;;;;;19.65;11.35;;;;;;;34.48;34.14;101470.13;5053005;28;20052;-72
2023/06/29 10:00:11;;;;;;;15.98;9.68;;;;;;;33.54;34.88;101466.75;5054325;28;20021;-73
2023/06/29 10:02:37;;;;;;;;;;;;;;;36.03;31.16;101459.34;5054257;28;20028;-73
2023/06/29 10:05:03;;;;;;;19.75;10.73;;;;;;;33.15;34.45;101466.91;5070807;28;19923;-73
2023/06/29 10:07:29;;;;;;;18.73;10.68;;;;;;;34.06;34.24;101465.28;5053776;28;20027;-73
2023/06/29 10:09:54;;;;;;;19.27;10.25;;;;;;;35.76;31.90;101464.03;5071101;28;20326;-73
2023/06/29 10:12:24;;;;;;;21.67;9.93;;;;;;;36.39;30.44;101459.91;5053013;28;20039;-73
2023/06/29 10:14:51;;;;;;;16.77;10.07;;;;;;;35.94;30.64;101462.06;5053392;28;20028;-73
2023/06/29 10:17:33;;;;;;;14.35;8.95;;;;;;;38.07;28.48;101449.94;5053485;28;20098;-73
2023/06/29 10:20:00;;;;;;;16.80;9.15;;;;;;;35.38;31.49;101449.97;5070504;28;20026;-73
2023/06/29 10:22:27;;;;;;;12.95;8.18;;;;;;;38.14;28.08;101448.16;5053730;28;20094;-74
2023/06/29 10:24:56;;;;;;;15.50;8.77;;;;;;;35.12;31.68;101464.47;5052287;28;20025;-74
2023/06/29 10:27:25;;;;;;;13.52;8.48;;;;;;;33.37;34.34;101460.28;5053483;28;20059;-72
2023/06/29 10:29:50;;;;;;;15.15;7.15;;;;;;;31.94;36.45;101461.91;5053166;28;20563;-72
2023/06/29 10:32:39;;;;;;;11.45;7.03;;;;;;;30.04;40.22;101470.16;5052645;28;20116;-73
2023/06/29 10:35:08;;;;;;;14.13;8.10;;;;;;;31.42;37.73;101472.84;5071589;28;20047;-73
2023/06/29 10:37:38;;;;;;;14.35;7.30;;;;;;;30.19;40.43;101472.56;5052891;28;20033;-73
2023/06/29 10:40:27;;;;;;;13.50;7.70;;;;;;;31.59;38.54;101463.25;5052560;28;20514;-72
2023/06/29 10:42:54;;;;;;;14.23;8.23;;;;;;;32.15;36.69;101474.47;5069543;28;20115;-72
2023/06/29 10:45:20;;;;;;;14.65;7.25;;;;;;;31.19;38.07;101465.88;5053496;28;20380;-73
2023/06/29 10:48:09;;;;;;;10.82;6.68;;;;;;;32.42;36.42;101456.66;5052325;28;20028;-72
2023/06/29 10:50:43;;;;;;;11.45;7.28;;;;;;;32.58;35.89;101454.22;5070721;28;20119;-72
2023/06/29 10:53:14;;;;;;;12.68;7.32;;;;;;;32.49;35.41;101449.66;5052434;28;20028;-72
2023/06/29 10:55:49;;;;;;;10.77;6.63;;;;;;;32.08;35.97;101446.25;5070746;28;20493;-72
2023/06/29 10:58:20;;;;;;;15.13;7.45;;;;;;;32.37;36.24;101449.00;5052835;28;20062;-72
2023/06/29 11:00:47;;;;;;;14.05;7.07;;;;;;;32.30;35.58;101451.41;5051846;28;20074;-71
2023/06/29 11:03:13;;;;;;;13.55;6.95;;;;;;;31.93;36.25;101452.06;5052648;28;20481;-72
2023/06/29 11:05:39;;;;;;;12.93;7.07;;;;;;;32.08;35.98;101451.66;5052242;28;20043;-71
2023/06/29 11:08:09;;;;;;;12.63;7.05;;;;;;;31.08;37.50;101447.97;5052204;28;20032;-73
2023/06/29 11:10:37;;;;;;;14.85;6.70;;;;;;;33.61;33.37;101446.19;5070481;28;20032;-72